Terminal Aerodrome Forecast
Issued by NWS

Home | Current Version | Previous Version | Text Only | Print | Product List | Glossary On
Versions: 1 2 3 4 5 6 7 8 9 10 11 12 13 14 15 16 17 18 19 20 21 22 23 24 25 26 27 28 29
000
FTUS45 KSLC 200556 CCA
TAFLGU
TAF COR
KLGU 200556Z 2006/2106 VRB04KT P6SM VCSH SCT020 BKN040
      TEMPO 2006/2008 6SM -RASN BKN015
     FM210000 VRB04KT 3SM -SN SCT007 BKN010=

USA.gov is the U.S. government's official web portal to all federal, state and local government web resources and services.